Map

Track Data

SID SEASON NUMBER BASIN SUBBASIN NAME ISO_TIME NATURE LAT LON WMO_WIND WMO_PRES WMO_AGENCY TRACK_TYPE DIST2LAND LANDFALL IFLAG USA_AGENCY USA_ATCF_ID USA_LAT USA_LON USA_RECORD USA_STATUS USA_WIND USA_PRES USA_SSHS USA_R34_NE USA_R34_SE USA_R34_SW USA_R34_NW USA_R50_NE USA_R50_SE USA_R50_SW USA_R50_NW USA_R64_NE USA_R64_SE USA_R64_SW USA_R64_NW USA_POCI USA_ROCI USA_RMW USA_EYE TOKYO_LAT TOKYO_LON TOKYO_GRADE TOKYO_WIND TOKYO_PRES TOKYO_R50_DIR TOKYO_R50_LONG TOKYO_R50_SHORT TOKYO_R30_DIR TOKYO_R30_LONG TOKYO_R30_SHORT TOKYO_LAND CMA_LAT CMA_LON CMA_CAT CMA_WIND CMA_PRES HKO_LAT HKO_LON HKO_CAT HKO_WIND HKO_PRES NEWDELHI_LAT NEWDELHI_LON NEWDELHI_GRADE NEWDELHI_WIND NEWDELHI_PRES NEWDELHI_CI NEWDELHI_DP NEWDELHI_POCI REUNION_LAT REUNION_LON REUNION_TYPE REUNION_WIND REUNION_PRES REUNION_TNUM REUNION_CI REUNION_RMW REUNION_R34_NE REUNION_R34_SE REUNION_R34_SW REUNION_R34_NW REUNION_R50_NE REUNION_R50_SE REUNION_R50_SW REUNION_R50_NW REUNION_R64_NE REUNION_R64_SE REUNION_R64_SW REUNION_R64_NW BOM_LAT BOM_LON BOM_TYPE BOM_WIND BOM_PRES BOM_TNUM BOM_CI BOM_RMW BOM_R34_NE BOM_R34_SE BOM_R34_SW BOM_R34_NW BOM_R50_NE BOM_R50_SE BOM_R50_SW BOM_R50_NW BOM_R64_NE BOM_R64_SE BOM_R64_SW BOM_R64_NW BOM_ROCI BOM_POCI BOM_EYE BOM_POS_METHOD BOM_PRES_METHOD NADI_LAT NADI_LON NADI_CAT NADI_WIND NADI_PRES WELLINGTON_LAT WELLINGTON_LON WELLINGTON_WIND WELLINGTON_PRES DS824_LAT DS824_LON DS824_STAGE DS824_WIND DS824_PRES TD9636_LAT TD9636_LON TD9636_STAGE TD9636_WIND TD9636_PRES TD9635_LAT TD9635_LON TD9635_WIND TD9635_PRES TD9635_ROCI NEUMANN_LAT NEUMANN_LON NEUMANN_CLASS NEUMANN_WIND NEUMANN_PRES MLC_LAT MLC_LON MLC_CLASS MLC_WIND MLC_PRES USA_GUST BOM_GUST BOM_GUST_PER REUNION_GUST REUNION_GUST_PER USA_SEAHGT USA_SEARAD_NE USA_SEARAD_SE USA_SEARAD_SW USA_SEARAD_NW STORM_SPEED STORM_DIR
1955253N14319 1955 69 NA NA IONE 1955-09-10 06:00:00 TS 13.6000 -41.4000 25 hurdat_atl main 1505 1459 O_____________ hurdat_atl AL081955 13.6000 -41.4000 TD 25 -1 16 284
1955253N14319 1955 69 NA NA IONE 1955-09-10 09:00:00 TS 13.8005 -42.1997 main 1459 1417 P_____________ AL081955 13.8005 -42.1997 TD 30 -1 16 284
1955253N14319 1955 69 NA NA IONE 1955-09-10 12:00:00 TS 14.0000 -43.0000 35 hurdat_atl main 1417 1380 O_____________ hurdat_atl AL081955 14.0000 -43.0000 TS 35 0 16 284
1955253N14319 1955 69 NA NA IONE 1955-09-10 15:00:00 TS 14.1997 -43.8001 main 1380 1348 P_____________ AL081955 14.1997 -43.8001 TS 35 0 16 284
1955253N14319 1955 69 NA NA IONE 1955-09-10 18:00:00 TS 14.4000 -44.6000 35 hurdat_atl main 1348 1315 O_____________ hurdat_atl AL081955 14.4000 -44.6000 TS 35 0 16 285
1955253N14319 1955 69 NA NA IONE 1955-09-10 21:00:00 TS 14.6072 -45.4001 main 1315 1283 P_____________ AL081955 14.6072 -45.4001 TS 35 0 16 284
1955253N14319 1955 69 NA NA IONE 1955-09-11 00:00:00 TS 14.8000 -46.2000 35 hurdat_atl main 1283 1252 O_____________ hurdat_atl AL081955 14.8000 -46.2000 TS 35 0 16 283
1955253N14319 1955 69 NA NA IONE 1955-09-11 03:00:00 TS 14.9723 -47.0075 main 1257 1226 P_____________ AL081955 14.9723 -47.0075 TS 35 0 16 281
1955253N14319 1955 69 NA NA IONE 1955-09-11 06:00:00 TS 15.1000 -47.8000 35 hurdat_atl main 1226 1204 O_____________ hurdat_atl AL081955 15.1000 -47.8000 TS 35 0 15 278
1955253N14319 1955 69 NA NA IONE 1955-09-11 09:00:00 TS 15.1947 -48.5574 main 1200 1171 P_____________ AL081955 15.1947 -48.5574 TS 35 0 15 274
1955253N14319 1955 69 NA NA IONE 1955-09-11 12:00:00 TS 15.2000 -49.3000 35 hurdat_atl main 1171 1128 O_____________ hurdat_atl AL081955 15.2000 -49.3000 TS 35 0 15 265
1955253N14319 1955 69 NA NA IONE 1955-09-11 15:00:00 TS 15.0799 -50.0652 main 1123 1074 P_____________ AL081955 15.0799 -50.0652 TS 35 0 15 258
1955253N14319 1955 69 NA NA IONE 1955-09-11 18:00:00 TS 14.9000 -50.8000 35 hurdat_atl main 1074 1042 O_____________ hurdat_atl AL081955 14.9000 -50.8000 TS 35 0 14 256
1955253N14319 1955 69 NA NA IONE 1955-09-11 21:00:00 TS 14.7497 -51.4649 main 1028 1001 P_____________ AL081955 14.7497 -51.4649 TS 35 0 13 257
1955253N14319 1955 69 NA NA IONE 1955-09-12 00:00:00 TS 14.6000 -52.1000 35 hurdat_atl main 1001 977 O_____________ hurdat_atl AL081955 14.6000 -52.1000 TS 35 0 13 257
1955253N14319 1955 69 NA NA IONE 1955-09-12 03:00:00 TS 14.4499 -52.7574 main 964 918 P_____________ AL081955 14.4499 -52.7574 TS 35 0 13 257
1955253N14319 1955 69 NA NA IONE 1955-09-12 06:00:00 TS 14.3000 -53.4000 35 hurdat_atl main 918 850 O_____________ hurdat_atl AL081955 14.3000 -53.4000 TS 35 0 13 255
1955253N14319 1955 69 NA NA IONE 1955-09-12 09:00:00 TS 14.1273 -54.0076 main 850 787 P_____________ AL081955 14.1273 -54.0076 TS 35 0 12 256
1955253N14319 1955 69 NA NA IONE 1955-09-12 12:00:00 TS 14.0000 -54.6000 35 hurdat_atl main 787 725 O_____________ hurdat_atl AL081955 14.0000 -54.6000 TS 35 0 12 261
1955253N14319 1955 69 NA NA IONE 1955-09-12 15:00:00 TS 13.9474 -55.2075 main 725 675 P_____________ AL081955 13.9474 -55.2075 TS 35 0 12 270
1955253N14319 1955 69 NA NA IONE 1955-09-12 18:00:00 TS 14.0000 -55.8000 35 1007 hurdat_atl main 675 636 O_____________ hurdat_atl AL081955 14.0000 -55.8000 TS 35 1007 0 11 281
1955253N14319 1955 69 NA NA IONE 1955-09-12 21:00:00 TS 14.1623 -56.3574 main 635 608 P_____________ AL081955 14.1623 -56.3574 TS 35 0 11 291
1955253N14319 1955 69 NA NA IONE 1955-09-13 00:00:00 TS 14.4000 -56.9000 35 hurdat_atl main 608 585 O_____________ hurdat_atl AL081955 14.4000 -56.9000 TS 35 0 12 294
1955253N14319 1955 69 NA NA IONE 1955-09-13 03:00:00 TS 14.6350 -57.4725 main 578 569 P_____________ AL081955 14.6350 -57.4725 TS 35 0 12 295
1955253N14319 1955 69 NA NA IONE 1955-09-13 06:00:00 TS 14.9000 -58.0000 35 hurdat_atl main 571 565 O_____________ hurdat_atl AL081955 14.9000 -58.0000 TS 35 0 11 301
1955253N14319 1955 69 NA NA IONE 1955-09-13 09:00:00 TS 15.1924 -58.4450 main 577 572 P_____________ AL081955 15.1924 -58.4450 TS 35 0 10 308
1955253N14319 1955 69 NA NA IONE 1955-09-13 12:00:00 TS 15.5000 -58.8000 35 hurdat_atl main 587 587 O_____________ hurdat_atl AL081955 15.5000 -58.8000 TS 35 0 9 315
1955253N14319 1955 69 NA NA IONE 1955-09-13 15:00:00 TS 15.7999 -59.0801 main 606 606 P_____________ AL081955 15.7999 -59.0801 TS 37 0 8 321
1955253N14319 1955 69 NA NA IONE 1955-09-13 18:00:00 TS 16.1000 -59.3000 40 hurdat_atl main 631 631 O_____________ hurdat_atl AL081955 16.1000 -59.3000 TS 40 0 7 326
1955253N14319 1955 69 NA NA IONE 1955-09-13 21:00:00 TS 16.4000 -59.5076 main 658 648 P_____________ AL081955 16.4000 -59.5076 TS 42 0 7 327
1955253N14319 1955 69 NA NA IONE 1955-09-14 00:00:00 TS 16.7000 -59.7000 45 hurdat_atl main 648 618 O_____________ hurdat_atl AL081955 16.7000 -59.7000 TS 45 0 7 328
1955253N14319 1955 69 NA NA IONE 1955-09-14 03:00:00 TS 17.0000 -59.8926 main 618 591 P_____________ AL081955 17.0000 -59.8926 TS 45 0 7 328
1955253N14319 1955 69 NA NA IONE 1955-09-14 06:00:00 TS 17.3000 -60.1000 45 hurdat_atl main 591 564 O_____________ hurdat_atl AL081955 17.3000 -60.1000 TS 45 0 7 326
1955253N14319 1955 69 NA NA IONE 1955-09-14 09:00:00 TS 17.5999 -60.3202 main 564 529 P_____________ AL081955 17.5999 -60.3202 TS 47 0 8 322
1955253N14319 1955 69 NA NA IONE 1955-09-14 12:00:00 TS 17.9000 -60.6000 50 1001 hurdat_atl main 529 496 O_____________ hurdat_atl AL081955 17.9000 -60.6000 TS 50 1001 0 9 313
1955253N14319 1955 69 NA NA IONE 1955-09-14 15:00:00 TS 18.1850 -60.9702 main 485 443 P_____________ AL081955 18.1850 -60.9702 TS 50 1000 0 10 308
1955253N14319 1955 69 NA NA IONE 1955-09-14 18:00:00 TS 18.5000 -61.4000 50 1000 hurdat_atl main 443 402 O_____________ hurdat_atl AL081955 18.5000 -61.4000 TS 50 1000 0 11 309
1955253N14319 1955 69 NA NA IONE 1955-09-14 21:00:00 TS 18.8474 -61.8355 main 402 361 P_____________ AL081955 18.8474 -61.8355 TS 52 0 12 313
1955253N14319 1955 69 NA NA IONE 1955-09-15 00:00:00 TS 19.3000 -62.3000 55 hurdat_atl main 361 338 O_____________ hurdat_atl AL081955 19.3000 -62.3000 TS 55 0 14 320
1955253N14319 1955 69 NA NA IONE 1955-09-15 03:00:00 TS 19.9124 -62.7851 main 338 332 P_____________ AL081955 19.9124 -62.7851 TS 60 0 16 324
1955253N14319 1955 69 NA NA IONE 1955-09-15 06:00:00 TS 20.6000 -63.3000 65 hurdat_atl main 344 344 O_____________ hurdat_atl AL081955 20.6000 -63.3000 HU 65 1 17 324
1955253N14319 1955 69 NA NA IONE 1955-09-15 09:00:00 TS 21.2798 -63.8351 main 375 369 P_____________ AL081955 21.2798 -63.8351 HU 67 1 17 322
1955253N14319 1955 69 NA NA IONE 1955-09-15 12:00:00 TS 21.9000 -64.4000 70 990 hurdat_atl main 410 410 O_____________ hurdat_atl AL081955 21.9000 -64.4000 HU 70 990 1 16 317
1955253N14319 1955 69 NA NA IONE 1955-09-15 15:00:00 TS 22.4097 -64.9779 main 451 451 P_____________ AL081955 22.4097 -64.9779 HU 70 1 14 309
1955253N14319 1955 69 NA NA IONE 1955-09-15 18:00:00 TS 22.8000 -65.6000 70 hurdat_atl main 492 492 O_____________ hurdat_atl AL081955 22.8000 -65.6000 HU 70 1 14 299
1955253N14319 1955 69 NA NA IONE 1955-09-15 21:00:00 TS 23.0875 -66.2929 main 525 506 P_____________ AL081955 23.0875 -66.2929 HU 72 1 14 291
1955253N14319 1955 69 NA NA IONE 1955-09-16 00:00:00 TS 23.3000 -67.0000 75 hurdat_atl main 506 494 O_____________ hurdat_atl AL081955 23.3000 -67.0000 HU 75 1 13 288
1955253N14319 1955 69 NA NA IONE 1955-09-16 03:00:00 TS 23.5074 -67.6802 main 496 488 P_____________ AL081955 23.5074 -67.6802 HU 75 1 13 289
1955253N14319 1955 69 NA NA IONE 1955-09-16 06:00:00 TS 23.7000 -68.3000 75 hurdat_atl main 490 487 O_____________ hurdat_atl AL081955 23.7000 -68.3000 HU 75 1 11 290
1955253N14319 1955 69 NA NA IONE 1955-09-16 09:00:00 TS 23.8922 -68.8303 main 494 487 P_____________ AL081955 23.8922 -68.8303 HU 75 1 10 294
1955253N14319 1955 69 NA NA IONE 1955-09-16 12:00:00 TS 24.1000 -69.3000 75 985 hurdat_atl main 499 483 O_____________ hurdat_atl AL081955 24.1000 -69.3000 HU 75 985 1 10 298
1955253N14319 1955 69 NA NA IONE 1955-09-16 15:00:00 TS 24.3423 -69.7576 main 477 473 P_____________ AL081955 24.3423 -69.7576 HU 77 1 10 301
1955253N14319 1955 69 NA NA IONE 1955-09-16 18:00:00 TS 24.6000 -70.2000 80 hurdat_atl main 476 467 O_____________ hurdat_atl AL081955 24.6000 -70.2000 HU 80 1 10 301
1955253N14319 1955 69 NA NA IONE 1955-09-16 21:00:00 TS 24.8424 -70.6577 main 466 466 P_____________ AL081955 24.8424 -70.6577 HU 82 1 10 301
1955253N14319 1955 69 NA NA IONE 1955-09-17 00:00:00 TS 25.1000 -71.1000 85 hurdat_atl main 477 473 O_____________ hurdat_atl AL081955 25.1000 -71.1000 HU 85 2 10 305
1955253N14319 1955 69 NA NA IONE 1955-09-17 03:00:00 TS 25.3924 -71.5226 main 493 490 P_____________ AL081955 25.3924 -71.5226 HU 87 2 9 310
1955253N14319 1955 69 NA NA IONE 1955-09-17 06:00:00 TS 25.7000 -71.9000 90 971 hurdat_atl main 515 513 O_____________ hurdat_atl AL081955 25.7000 -71.9000 HU 90 971 2 9 314
1955253N14319 1955 69 NA NA IONE 1955-09-17 09:00:00 TS 25.9923 -72.2079 main 542 541 P_____________ AL081955 25.9923 -72.2079 HU 97 960 3 8 318
1955253N14319 1955 69 NA NA IONE 1955-09-17 12:00:00 TS 26.3000 -72.5000 105 950 hurdat_atl main 559 543 O_____________ hurdat_atl AL081955 26.3000 -72.5000 HU 105 950 3 9 318
1955253N14319 1955 69 NA NA IONE 1955-09-17 15:00:00 TS 26.6274 -72.8353 main 543 523 P_____________ AL081955 26.6274 -72.8353 HU 112 944 3 9 318
1955253N14319 1955 69 NA NA IONE 1955-09-17 18:00:00 TS 27.0000 -73.2000 120 938 hurdat_atl main 523 508 O_____________ hurdat_atl AL081955 27.0000 -73.2000 HU 120 938 4 11 320
1955253N14319 1955 69 NA NA IONE 1955-09-17 21:00:00 TS 27.4350 -73.6000 main 508 499 P_____________ AL081955 27.4350 -73.6000 HU 120 4 11 322
1955253N14319 1955 69 NA NA IONE 1955-09-18 00:00:00 TS 27.9000 -74.0000 120 hurdat_atl main 505 504 O_____________ hurdat_atl AL081955 27.9000 -74.0000 HU 120 4 11 323
1955253N14319 1955 69 NA NA IONE 1955-09-18 03:00:00 TS 28.3424 -74.3654 main 505 505 P_____________ AL081955 28.3424 -74.3654 HU 117 4 11 326
1955253N14319 1955 69 NA NA IONE 1955-09-18 06:00:00 TS 28.8000 -74.7000 115 hurdat_atl main 526 526 O_____________ hurdat_atl AL081955 28.8000 -74.7000 HU 115 4 11 328
1955253N14319 1955 69 NA NA IONE 1955-09-18 09:00:00 TS 29.2624 -75.0155 main 542 522 P_____________ AL081955 29.2624 -75.0155 HU 112 3 11 332
1955253N14319 1955 69 NA NA IONE 1955-09-18 12:00:00 TS 29.8000 -75.3000 110 943 hurdat_atl main 523 450 O_____________ hurdat_atl AL081955 29.8000 -75.3000 HU 110 943 3 13 338
1955253N14319 1955 69 NA NA IONE 1955-09-18 15:00:00 TS 30.4700 -75.5724 main 441 364 P_____________ AL081955 30.4700 -75.5724 HU 107 3 15 343
1955253N14319 1955 69 NA NA IONE 1955-09-18 18:00:00 TS 31.2000 -75.8000 105 hurdat_atl main 364 290 O_____________ hurdat_atl AL081955 31.2000 -75.8000 HU 105 3 15 347
1955253N14319 1955 69 NA NA IONE 1955-09-18 21:00:00 TS 31.9149 -75.9581 main 290 228 P_____________ AL081955 31.9149 -75.9581 HU 102 3 14 350
1955253N14319 1955 69 NA NA IONE 1955-09-19 00:00:00 TS 32.6000 -76.1000 100 hurdat_atl main 228 168 O_____________ hurdat_atl AL081955 32.6000 -76.1000 HU 100 3 13 347
1955253N14319 1955 69 NA NA IONE 1955-09-19 03:00:00 TS 33.2245 -76.3057 main 168 100 P_____________ AL081955 33.2245 -76.3057 HU 97 3 12 344
1955253N14319 1955 69 NA NA IONE 1955-09-19 06:00:00 TS 33.8000 -76.5000 95 hurdat_atl main 100 33 O_____________ hurdat_atl AL081955 33.8000 -76.5000 HU 95 2 12 346
1955253N14319 1955 69 NA NA IONE 1955-09-19 09:00:00 TS 34.4010 -76.6542 main 33 0 P_____________ AL081955 34.4010 -76.6542 HU 92 2 11 350
1955253N14319 1955 69 NA NA IONE 1955-09-19 11:00:00 TS 34.7000 -76.7000 90 955 hurdat_atl main 0 0 O_____________ hurdat_atl AL081955 34.7000 -76.7000 L HU 90 955 2 8 353
1955253N14319 1955 69 NA NA IONE 1955-09-19 12:00:00 TS 34.8000 -76.7000 90 955 hurdat_atl main 0 0 O_____________ hurdat_atl AL081955 34.8000 -76.7000 HU 90 955 2 5 358
1955253N14319 1955 69 NA NA IONE 1955-09-19 15:00:00 TS 35.0515 -76.7178 main 0 0 P_____________ AL081955 35.0515 -76.7178 HU 82 1 5 2
1955253N14319 1955 69 NA NA IONE 1955-09-19 18:00:00 TS 35.3000 -76.7000 75 hurdat_atl main 0 0 O_____________ hurdat_atl AL081955 35.3000 -76.7000 HU 75 1 6 9
1955253N14319 1955 69 NA NA IONE 1955-09-19 21:00:00 TS 35.6424 -76.6024 main 0 0 P_____________ AL081955 35.6424 -76.6024 HU 70 1 7 19
1955253N14319 1955 69 NA NA IONE 1955-09-20 00:00:00 TS 36.0000 -76.4000 65 hurdat_atl main 11 0 O_____________ hurdat_atl AL081955 36.0000 -76.4000 HU 65 1 8 29
1955253N14319 1955 69 NA NA IONE 1955-09-20 03:00:00 TS 36.3144 -76.1395 main 0 0 P_____________ AL081955 36.3144 -76.1395 HU 65 1 8 43
1955253N14319 1955 69 NA NA IONE 1955-09-20 06:00:00 TS 36.6000 -75.7000 65 976 hurdat_atl main 17 17 O_____________ hurdat_atl AL081955 36.6000 -75.7000 HU 65 976 1 10 59
1955253N14319 1955 69 NA NA IONE 1955-09-20 09:00:00 TS 36.8268 -75.0606 main 74 74 P_____________ AL081955 36.8268 -75.0606 HU 67 977 1 13 67
1955253N14319 1955 69 NA NA IONE 1955-09-20 12:00:00 TS 37.1000 -74.2000 70 hurdat_atl main 138 138 I_____________ hurdat_atl AL081955 37.1000 -74.2000 HU 70 979 1 16 65
1955253N14319 1955 69 NA NA IONE 1955-09-20 15:00:00 TS 37.4865 -73.2611 main 180 180 P_____________ AL081955 37.4865 -73.2611 HU 72 980 1 20 63
1955253N14319 1955 69 NA NA IONE 1955-09-20 18:00:00 TS 38.0000 -72.0000 75 982 hurdat_atl main 259 259 O_____________ hurdat_atl AL081955 38.0000 -72.0000 HU 75 982 1 26 65
1955253N14319 1955 69 NA NA IONE 1955-09-20 21:00:00 TS 38.5523 -70.3006 main 313 299 P_____________ AL081955 38.5523 -70.3006 HU 77 979 1 32 66
1955253N14319 1955 69 NA NA IONE 1955-09-21 00:00:00 TS 39.3000 -68.3000 80 976 hurdat_atl main 303 301 O_____________ hurdat_atl AL081955 39.3000 -68.3000 HU 80 976 1 36 62
1955253N14319 1955 69 NA NA IONE 1955-09-21 03:00:00 TS 40.2331 -66.2060 main 359 253 P_____________ AL081955 40.2331 -66.2060 HU 80 1 39 56
1955253N14319 1955 69 NA NA IONE 1955-09-21 06:00:00 ET 41.5000 -64.0000 80 hurdat_atl main 246 194 O_____________ hurdat_atl AL081955 41.5000 -64.0000 EX 80 -4 44 49
1955253N14319 1955 69 NA NA IONE 1955-09-21 09:00:00 ET 43.1509 -61.7073 main 188 104 P_____________ AL081955 43.1509 -61.7073 EX 77 -4 48 44
1955253N14319 1955 69 NA NA IONE 1955-09-21 12:00:00 ET 45.0000 -59.4000 75 hurdat_atl main 102 78 O_____________ hurdat_atl AL081955 45.0000 -59.4000 EX 75 -4 50 42
1955253N14319 1955 69 NA NA IONE 1955-09-21 15:00:00 ET 46.8823 -56.9139 main 66 0 P_____________ AL081955 46.8823 -56.9139 EX 75 -4 46 41
1955253N14319 1955 69 NA NA IONE 1955-09-21 18:00:00 ET 48.5000 -55.0000 75 hurdat_atl main 0 0 O_____________ hurdat_atl AL081955 48.5000 -55.0000 EX 75 -4 32 31
1955253N14319 1955 69 NA NA IONE 1955-09-21 21:00:00 ET 49.6242 -54.3935 main 18 18 P_____________ AL081955 49.6242 -54.3935 EX 72 -4 18 10
1955253N14319 1955 69 NA NA IONE 1955-09-22 00:00:00 ET 50.3000 -54.5000 70 hurdat_atl main 89 89 O_____________ hurdat_atl AL081955 50.3000 -54.5000 EX 70 -4 10 355
1955253N14319 1955 69 NA NA IONE 1955-09-22 03:00:00 ET 50.6122 -54.5129 main 100 94 P_____________ AL081955 50.6122 -54.5129 EX 70 -4 4 0
1955253N14319 1955 69 NA NA IONE 1955-09-22 06:00:00 ET 50.7000 -54.5000 70 hurdat_atl main 94 94 O_____________ hurdat_atl AL081955 50.7000 -54.5000 EX 70 -4 2 35
1955253N14319 1955 69 NA NA IONE 1955-09-22 09:00:00 ET 50.7648 -54.3521 main 96 96 P_____________ AL081955 50.7648 -54.3521 EX 67 -4 5 56
1955253N14319 1955 69 NA NA IONE 1955-09-22 12:00:00 ET 51.0000 -53.8000 65 hurdat_atl main 125 125 O_____________ hurdat_atl AL081955 51.0000 -53.8000 EX 65 -4 14 48
1955253N14319 1955 69 NA NA IONE 1955-09-22 15:00:00 ET 51.7032 -52.6692 main 193 193 P_____________ AL081955 51.7032 -52.6692 EX 65 -4 23 49
1955253N14319 1955 69 NA NA IONE 1955-09-22 18:00:00 ET 52.5000 -51.0000 65 hurdat_atl main 310 310 O_____________ hurdat_atl AL081955 52.5000 -51.0000 EX 65 -4 27 59
1955253N14319 1955 69 NA NA IONE 1955-09-22 21:00:00 ET 53.0749 -48.9281 main 455 455 P_____________ AL081955 53.0749 -48.9281 EX 62 -4 27 70
1955253N14319 1955 69 NA NA IONE 1955-09-23 00:00:00 ET 53.4000 -46.8000 60 hurdat_atl main 593 593 O_____________ hurdat_atl AL081955 53.4000 -46.8000 EX 60 -4 23 81
1955253N14319 1955 69 NA NA IONE 1955-09-23 03:00:00 ET 53.4266 -45.1591 main 699 699 P_____________ AL081955 53.4266 -45.1591 EX 57 -4 18 93
1955253N14319 1955 69 NA NA IONE 1955-09-23 06:00:00 ET 53.3000 -43.7000 55 hurdat_atl main 744 744 O_____________ hurdat_atl AL081955 53.3000 -43.7000 EX 55 -4 17 102
1955253N14319 1955 69 NA NA IONE 1955-09-23 09:00:00 ET 53.0692 -42.3158 main 776 776 P_____________ AL081955 53.0692 -42.3158 EX 52 -4 19 96
1955253N14319 1955 69 NA NA IONE 1955-09-23 12:00:00 ET 53.1000 -40.6000 50 hurdat_atl main 789 775 O_____________ hurdat_atl AL081955 53.1000 -40.6000 EX 50 -4 26 77
1955253N14319 1955 69 NA NA IONE 1955-09-23 15:00:00 ET 53.6458 -37.9925 main 782 769 P_____________ AL081955 53.6458 -37.9925 EX 47 -4 36 66
1955253N14319 1955 69 NA NA IONE 1955-09-23 18:00:00 ET 54.6000 -35.0000 45 hurdat_atl main 776 774 O_____________ hurdat_atl AL081955 54.6000 -35.0000 EX 45 -4 39 57
1955253N14319 1955 69 NA NA IONE 1955-09-23 21:00:00 ET 55.7894 -32.2586 main 790 790 P_____________ AL081955 55.7894 -32.2586 EX 45 -4 41 51
1955253N14319 1955 69 NA NA IONE 1955-09-24 00:00:00 ET 57.2000 -29.3000 45 hurdat_atl main 812 610 O_____________ hurdat_atl AL081955 57.2000 -29.3000 EX 45 -4 45 51
1955253N14319 1955 69 NA NA IONE 1955-09-24 03:00:00 ET 58.6121 -25.7128 main 596 411 P_____________ AL081955 58.6121 -25.7128 EX 45 -4 47 54
1955253N14319 1955 69 NA NA IONE 1955-09-24 06:00:00 ET 60.0000 -22.0000 45 hurdat_atl main 398 243 O_____________ hurdat_atl AL081955 60.0000 -22.0000 EX 45 -4 45 54
1955253N14319 1955 69 NA NA IONE 1955-09-24 09:00:00 ET 61.2765 -18.3247 main 233 164 P_____________ AL081955 61.2765 -18.3247 EX 45 -4 40 51
1955253N14319 1955 69 NA NA IONE 1955-09-24 12:00:00 ET 62.5000 -15.5000 45 hurdat_atl main 157 62 O_____________ hurdat_atl AL081955 62.5000 -15.5000 EX 45 -4 30 37
1955253N14319 1955 69 NA NA IONE 1955-09-24 15:00:00 ET 63.7340 -14.3862 main 62 0 P_____________ AL081955 63.7340 -14.3862 EX 42 -4 26 15
1955253N14319 1955 69 NA NA IONE 1955-09-24 18:00:00 ET 65.0000 -14.0000 40 hurdat_atl main 9 0 O_____________ hurdat_atl AL081955 65.0000 -14.0000 EX 40 -4 27 14
1955253N14319 1955 69 NA NA IONE 1955-09-24 21:00:00 ET 66.3263 -12.8018 main 86 86 P_____________ AL081955 66.3263 -12.8018 EX 40 -4 27 22
1955253N14319 1955 69 NA NA IONE 1955-09-25 00:00:00 ET 67.5000 -11.5000 40 hurdat_atl main 201 201 O_____________ hurdat_atl AL081955 67.5000 -11.5000 EX 40 -4 22 24
1955253N14319 1955 69 NA NA IONE 1955-09-25 03:00:00 ET 68.3614 -10.4111 main 303 303 P_____________ AL081955 68.3614 -10.4111 EX 37 -4 17 26
1955253N14319 1955 69 NA NA IONE 1955-09-25 06:00:00 ET 69.0000 -9.50000 35 hurdat_atl main 376 376 O_____________ hurdat_atl AL081955 69.0000 -9.50000 EX 35 -4 13 28
1955253N14319 1955 69 NA NA IONE 1955-09-25 09:00:00 ET 69.5444 -8.66729 main 439 439 P_____________ AL081955 69.5444 -8.66729 EX 35 -4 11 28
1955253N14319 1955 69 NA NA IONE 1955-09-25 12:00:00 ET 70.0000 -8.00000 35 hurdat_atl main 499 499 O_____________ hurdat_atl AL081955 70.0000 -8.00000 EX 35 -4 10 25
1955253N14319 1955 69 NA NA IONE 1955-09-25 15:00:00 ET 70.4723 -7.38736 main 518 518 P_____________ AL081955 70.4723 -7.38736 EX 35 -4 10 20
1955253N14319 1955 69 NA NA IONE 1955-09-25 18:00:00 ET 70.9000 -7.00000 35 hurdat_atl main 526 512 O_____________ hurdat_atl AL081955 70.9000 -7.00000 EX 35 -4 8 14
1955253N14319 1955 69 NA NA IONE 1955-09-25 21:00:00 ET 71.2789 -6.77647 main 512 488 P_____________ AL081955 71.2789 -6.77647 EX 35 -4 7 0
1955253N14319 1955 69 NA NA IONE 1955-09-26 00:00:00 ET 71.6000 -7.00000 35 hurdat_atl main 488 451 O_____________ hurdat_atl AL081955 71.6000 -7.00000 EX 35 -4 7 332
1955253N14319 1955 69 NA NA IONE 1955-09-26 03:00:00 ET 71.8721 -7.77384 main 448 404 P_____________ AL081955 71.8721 -7.77384 EX 35 -4 8 309
1955253N14319 1955 69 NA NA IONE 1955-09-26 06:00:00 ET 72.1000 -9.00000 35 hurdat_atl main 401 349 O_____________ hurdat_atl AL081955 72.1000 -9.00000 EX 35 -4 9 298
1955253N14319 1955 69 NA NA IONE 1955-09-26 09:00:00 ET 72.3169 -10.4983 main 346 295 P_____________ AL081955 72.3169 -10.4983 EX 35 -4 10 294
1955253N14319 1955 69 NA NA IONE 1955-09-26 12:00:00 ET 72.5000 -12.0000 35 hurdat_atl main 292 249 O_____________ hurdat_atl AL081955 72.5000 -12.0000 EX 35 -4 9 294
1955253N14319 1955 69 NA NA IONE 1955-09-26 15:00:00 ET 72.6640 -13.1524 main 246 218 P_____________ AL081955 72.6640 -13.1524 EX 32 -4 7 297
1955253N14319 1955 69 NA NA IONE 1955-09-26 18:00:00 ET 72.8000 -14.0000 30 hurdat_atl main 218 199 O_____________ hurdat_atl AL081955 72.8000 -14.0000 EX 30 -4 5 300
1955253N14319 1955 69 NA NA IONE 1955-09-26 21:00:00 ET 72.9078 -14.5742 main 196 180 P_____________ AL081955 72.9078 -14.5742 EX 30 -4 4 304
1955253N14319 1955 69 NA NA IONE 1955-09-27 00:00:00 ET 73.0000 -15.0000 30 hurdat_atl main 180 O_____________ hurdat_atl AL081955 73.0000 -15.0000 EX 30 -4 3 307

About IBTrACS Database

This database is a web-friendly format of International Best Track Archive for Climate Stewardship (IBTrACS), a global best track data archive curated by NOAA dating back to 1842.

Updated: 2021-10-08